Time;durP1;ratioP1;P1;durP2;ratioP2;P2;SDS_P1;SDS_P2;PMS_P1;PMS_P2;Temp;Humidity;BMP_temperature;BMP_pressure;BME280_temperature;BME280_humidity;BME280_pressure;Samples;Min_cycle;Max_cycle;Signal;HPM_P1;HPM_P2
2024/02/26 00:01:52;;;;;;;2.87;1.70;;;9.50;99.10;;;;;;5076960;28;20489;-58
2024/02/26 00:04:21;;;;;;;2.13;1.93;;;9.50;99.30;;;;;;5077033;28;20453;-58
2024/02/26 00:06:50;;;;;;;1.70;1.33;;;9.50;99.40;;;;;;5077435;28;20460;-58
2024/02/26 00:09:17;;;;;;;1.70;1.37;;;9.50;99.40;;;;;;5077063;28;20444;-58
2024/02/26 00:11:43;;;;;;;1.60;1.50;;;9.50;99.40;;;;;;5076979;28;20460;-58
2024/02/26 00:14:10;;;;;;;2.23;1.97;;;9.50;99.50;;;;;;5077126;28;20459;-58
2024/02/26 00:16:37;;;;;;;1.93;1.40;;;9.50;99.60;;;;;;5076713;28;20440;-58
2024/02/26 00:19:04;;;;;;;1.43;1.33;;;9.50;99.70;;;;;;5076738;28;20825;-57
2024/02/26 00:21:32;;;;;;;1.70;1.60;;;9.40;99.80;;;;;;5076551;28;20881;-58
2024/02/26 00:23:59;;;;;;;2.50;1.47;;;9.40;99.90;;;;;;5076654;28;20440;-58
2024/02/26 00:26:25;;;;;;;1.40;1.30;;;9.40;99.90;;;;;;5076636;28;20443;-58
2024/02/26 00:28:52;;;;;;;1.30;1.20;;;9.40;99.90;;;;;;5076815;28;20490;-58
2024/02/26 00:31:19;;;;;;;1.30;1.20;;;9.40;99.90;;;;;;5077518;28;20533;-58
2024/02/26 00:33:46;;;;;;;1.63;1.53;;;9.40;99.90;;;;;;5077538;28;20444;-58
2024/02/26 00:36:13;;;;;;;1.23;1.13;;;9.40;99.90;;;;;;5077017;28;20501;-58
2024/02/26 00:38:42;;;;;;;1.80;1.10;;;9.40;99.90;;;;;;5076696;28;20444;-58
2024/02/26 00:41:09;;;;;;;2.40;1.80;;;9.40;99.90;;;;;;5076543;28;20488;-58
2024/02/26 00:43:37;;;;;;;1.90;1.50;;;9.40;99.90;;;;;;5076429;28;20463;-58
2024/02/26 00:46:04;;;;;;;1.50;1.23;;;9.40;99.90;;;;;;5076359;28;20547;-58
2024/02/26 00:48:31;;;;;;;1.67;1.30;;;9.40;99.90;;;;;;5076346;28;20436;-58
2024/02/26 00:50:58;;;;;;;2.83;1.20;;;9.40;99.90;;;;;;5076257;28;20457;-58
2024/02/26 00:53:25;;;;;;;1.40;1.30;;;9.40;99.90;;;;;;5075725;28;20466;-58
2024/02/26 00:55:53;;;;;;;3.37;1.33;;;9.40;99.90;;;;;;5076373;28;20452;-58
2024/02/26 00:58:20;;;;;;;1.20;1.10;;;9.40;99.90;;;;;;5075396;28;20973;-58
2024/02/26 01:00:47;;;;;;;1.63;1.30;;;9.40;99.90;;;;;;5075679;28;20469;-58
2024/02/26 01:03:13;;;;;;;1.60;1.40;;;9.40;99.90;;;;;;5075655;28;20502;-58
2024/02/26 01:05:40;;;;;;;2.27;1.37;;;9.40;99.90;;;;;;5075589;28;20445;-58
2024/02/26 01:08:07;;;;;;;1.40;1.30;;;9.40;99.90;;;;;;5075271;28;20449;-58
2024/02/26 01:10:35;;;;;;;1.70;1.53;;;9.30;99.90;;;;;;5075521;28;20817;-58
2024/02/26 01:13:03;;;;;;;1.50;1.10;;;9.30;99.90;;;;;;5075506;28;20818;-58
2024/02/26 01:15:30;;;;;;;2.70;1.70;;;9.30;99.90;;;;;;5075545;28;20931;-58
2024/02/26 01:17:56;;;;;;;1.87;1.37;;;9.30;99.90;;;;;;5076261;28;20444;-58
2024/02/26 01:20:23;;;;;;;1.40;1.13;;;9.30;99.90;;;;;;5075641;28;20436;-58
2024/02/26 01:22:50;;;;;;;2.27;1.50;;;9.30;99.90;;;;;;5075458;28;20490;-58
2024/02/26 01:25:18;;;;;;;2.57;1.37;;;9.30;99.90;;;;;;5075282;28;20437;-58
2024/02/26 01:27:44;;;;;;;1.80;1.70;;;9.30;99.90;;;;;;5075524;28;20477;-58
2024/02/26 01:30:16;;;;;;;1.60;1.40;;;9.30;99.90;;;;;;5075091;28;20969;-57
2024/02/26 01:32:42;;;;;;;1.70;1.23;;;9.30;99.90;;;;;;5075287;28;20465;-58
2024/02/26 01:35:11;;;;;;;2.10;1.30;;;9.30;99.90;;;;;;5074942;28;20818;-58
2024/02/26 01:37:38;;;;;;;1.93;1.47;;;9.30;99.90;;;;;;5075368;28;20540;-58
2024/02/26 01:40:07;;;;;;;1.63;1.53;;;9.30;99.90;;;;;;5074996;28;20532;-58
2024/02/26 01:42:34;;;;;;;2.00;1.37;;;9.30;99.90;;;;;;5075051;28;20480;-57
2024/02/26 01:45:00;;;;;;;1.97;1.10;;;9.20;99.90;;;;;;5075142;28;20448;-58
2024/02/26 01:47:29;;;;;;;2.60;1.37;;;9.20;99.90;;;;;;5075231;28;20441;-58
2024/02/26 01:49:56;;;;;;;4.20;1.60;;;9.10;99.90;;;;;;5075169;28;20450;-58
2024/02/26 01:52:23;;;;;;;1.33;1.20;;;9.10;99.90;;;;;;5074913;28;20543;-58
2024/02/26 01:54:50;;;;;;;1.43;1.30;;;9.00;99.90;;;;;;5074625;28;20833;-58
2024/02/26 01:57:18;;;;;;;2.07;1.60;;;9.10;99.90;;;;;;5074913;28;20449;-58
2024/02/26 01:59:44;;;;;;;2.33;1.43;;;9.10;99.90;;;;;;5074952;28;20463;-58
2024/02/26 02:02:13;;;;;;;1.50;1.30;;;9.00;99.90;;;;;;5074390;28;21008;-57
2024/02/26 02:04:41;;;;;;;2.47;1.17;;;9.00;99.90;;;;;;5074706;28;20440;-58
2024/02/26 02:07:08;;;;;;;2.37;0.90;;;9.00;99.90;;;;;;5074608;28;20451;-58
2024/02/26 02:09:35;;;;;;;1.00;0.90;;;9.00;99.90;;;;;;5074757;28;20440;-58
2024/02/26 02:12:03;;;;;;;2.47;0.83;;;9.00;99.90;;;;;;5074658;28;20469;-58
2024/02/26 02:14:30;;;;;;;1.10;0.80;;;9.00;99.90;;;;;;5074682;28;20437;-58
2024/02/26 02:16:56;;;;;;;0.80;0.80;;;9.00;99.90;;;;;;5074135;28;20523;-58
2024/02/26 02:19:23;;;;;;;1.67;1.00;;;9.00;99.90;;;;;;5073489;28;20812;-58
2024/02/26 02:21:52;;;;;;;0.70;0.60;;;9.00;99.90;;;;;;5074257;28;20484;-58
2024/02/26 02:24:18;;;;;;;1.27;1.10;;;9.00;99.90;;;;;;5074045;28;20444;-58
2024/02/26 02:26:45;;;;;;;1.40;0.80;;;9.00;99.90;;;;;;5074421;28;20445;-58
2024/02/26 02:29:13;;;;;;;0.90;0.87;;;9.00;99.90;;;;;;5074271;28;20441;-58
2024/02/26 02:31:40;;;;;;;1.00;0.80;;;8.90;99.90;;;;;;5074163;28;20457;-58
2024/02/26 02:34:07;;;;;;;1.43;0.90;;;8.90;99.90;;;;;;5073896;28;20451;-58
2024/02/26 02:36:34;;;;;;;0.97;0.87;;;9.00;99.90;;;;;;5074174;28;20441;-58
2024/02/26 02:39:03;;;;;;;0.90;0.87;;;9.00;99.90;;;;;;5074246;28;20539;-58
2024/02/26 02:41:30;;;;;;;2.00;0.90;;;9.00;99.90;;;;;;5075067;28;20488;-58
2024/02/26 02:43:57;;;;;;;2.70;1.17;;;9.00;99.90;;;;;;5073952;28;20455;-58
2024/02/26 02:46:24;;;;;;;1.10;1.00;;;9.00;99.90;;;;;;5073911;28;20452;-58
2024/02/26 02:48:50;;;;;;;1.00;0.80;;;9.00;99.90;;;;;;5073673;28;20830;-58
2024/02/26 02:51:17;;;;;;;1.70;0.80;;;9.00;99.90;;;;;;5073792;28;20500;-58
2024/02/26 02:53:44;;;;;;;2.20;1.20;;;9.00;99.90;;;;;;5073753;28;20457;-58
2024/02/26 02:56:13;;;;;;;1.50;1.10;;;9.00;99.90;;;;;;5073783;28;20451;-58
2024/02/26 02:58:39;;;;;;;1.00;0.90;;;9.00;99.90;;;;;;5073819;28;20558;-58
2024/02/26 03:01:06;;;;;;;3.07;1.37;;;9.00;99.90;;;;;;5073592;28;20460;-58
2024/02/26 03:03:33;;;;;;;0.77;0.70;;;9.00;99.90;;;;;;5073617;28;20486;-58
2024/02/26 03:06:00;;;;;;;1.93;0.80;;;8.90;99.90;;;;;;5073442;28;20444;-58
2024/02/26 03:08:26;;;;;;;1.10;0.87;;;8.90;99.90;;;;;;5073362;28;20441;-58
2024/02/26 03:10:53;;;;;;;2.60;1.03;;;9.00;99.90;;;;;;5073305;28;21002;-58
2024/02/26 03:13:22;;;;;;;1.00;0.83;;;8.90;99.90;;;;;;5073528;28;20437;-58
2024/02/26 03:15:49;;;;;;;1.43;0.60;;;8.90;99.90;;;;;;5073064;28;20451;-58
2024/02/26 03:18:15;;;;;;;1.30;1.07;;;8.90;99.90;;;;;;5073240;28;20798;-57
2024/02/26 03:20:42;;;;;;;1.33;1.00;;;9.00;99.90;;;;;;5073441;28;20440;-58
2024/02/26 03:23:12;;;;;;;1.20;0.80;;;9.00;99.90;;;;;;5073398;28;20487;-58
2024/02/26 03:25:39;;;;;;;0.90;0.63;;;9.00;99.90;;;;;;5074607;28;20920;-58
2024/02/26 03:28:06;;;;;;;2.50;0.70;;;9.00;99.90;;;;;;5073385;28;20440;-58
2024/02/26 03:30:35;;;;;;;2.20;1.20;;;9.00;99.90;;;;;;5073423;28;20441;-58
2024/02/26 03:33:01;;;;;;;0.77;0.73;;;9.00;99.90;;;;;;5073176;28;20460;-58
2024/02/26 03:35:28;;;;;;;1.87;0.70;;;9.00;99.90;;;;;;5073351;28;20448;-58
2024/02/26 03:37:55;;;;;;;0.97;0.90;;;8.90;99.90;;;;;;5073086;28;20455;-57
2024/02/26 03:40:22;;;;;;;1.10;0.80;;;8.90;99.90;;;;;;5072986;28;20452;-58
2024/02/26 03:42:49;;;;;;;1.30;0.83;;;8.90;99.90;;;;;;5073118;28;20491;-58
2024/02/26 03:45:16;;;;;;;1.07;0.70;;;8.90;99.90;;;;;;5073295;28;20445;-58
2024/02/26 03:47:44;;;;;;;1.07;0.70;;;8.90;99.90;;;;;;5073756;28;20451;-58
2024/02/26 03:50:11;;;;;;;1.00;0.80;;;8.90;99.90;;;;;;5073760;28;20977;-58
2024/02/26 03:52:37;;;;;;;2.30;1.07;;;8.90;99.90;;;;;;5073100;28;20465;-58
2024/02/26 03:55:05;;;;;;;1.00;0.90;;;8.90;99.90;;;;;;5073221;28;20463;-58
2024/02/26 03:57:31;;;;;;;1.53;1.13;;;8.90;99.90;;;;;;5073111;28;20931;-58
2024/02/26 03:59:58;;;;;;;1.03;0.70;;;8.90;99.90;;;;;;5073575;28;20448;-58
2024/02/26 04:02:25;;;;;;;1.13;0.77;;;8.90;99.90;;;;;;5073173;28;20488;-58
2024/02/26 04:04:53;;;;;;;1.27;1.00;;;8.90;99.90;;;;;;5073213;28;20448;-58
2024/02/26 04:07:20;;;;;;;1.23;1.00;;;8.80;99.90;;;;;;5073272;28;20825;-57
2024/02/26 04:09:47;;;;;;;0.73;0.73;;;8.80;99.90;;;;;;5073238;28;20437;-58
2024/02/26 04:12:14;;;;;;;2.20;1.50;;;8.80;99.90;;;;;;5073049;28;20456;-58
2024/02/26 04:14:41;;;;;;;0.80;0.80;;;8.80;99.90;;;;;;5072827;28;20448;-58
2024/02/26 04:17:07;;;;;;;1.80;0.90;;;8.70;99.90;;;;;;5073122;28;20523;-58
2024/02/26 04:19:34;;;;;;;1.07;0.97;;;8.70;99.90;;;;;;5073054;28;20441;-58
2024/02/26 04:22:03;;;;;;;1.00;0.90;;;8.70;99.90;;;;;;5073012;28;20477;-58
2024/02/26 04:24:29;;;;;;;1.30;1.00;;;8.70;99.90;;;;;;5072974;28;20542;-58
2024/02/26 04:26:56;;;;;;;1.50;1.00;;;8.70;99.90;;;;;;5072832;28;20476;-58
2024/02/26 04:29:23;;;;;;;1.47;1.17;;;8.70;99.90;;;;;;5073033;28;20441;-58
2024/02/26 04:31:50;;;;;;;1.10;1.00;;;8.70;99.90;;;;;;5072744;28;20556;-58
2024/02/26 04:34:17;;;;;;;1.87;1.20;;;8.70;99.90;;;;;;5072909;28;20445;-58
2024/02/26 04:36:43;;;;;;;2.30;1.13;;;8.60;99.90;;;;;;5072776;28;20448;-58
2024/02/26 04:39:12;;;;;;;1.10;0.97;;;8.60;99.90;;;;;;5073785;28;20454;-58
2024/02/26 04:41:39;;;;;;;1.30;1.10;;;8.70;99.90;;;;;;5072857;28;20464;-57
2024/02/26 04:44:06;;;;;;;1.30;1.20;;;8.70;99.90;;;;;;5076094;28;20480;-57
2024/02/26 04:46:32;;;;;;;1.40;1.00;;;8.70;99.90;;;;;;5076380;28;20440;-58
2024/02/26 04:48:59;;;;;;;1.30;1.20;;;8.70;99.90;;;;;;5076312;28;20448;-58
2024/02/26 04:51:26;;;;;;;2.77;1.23;;;8.70;99.90;;;;;;5076151;28;20470;-58
2024/02/26 04:53:54;;;;;;;1.20;1.10;;;8.70;99.90;;;;;;5075954;28;20455;-58
2024/02/26 04:56:23;;;;;;;1.00;0.80;;;8.70;99.90;;;;;;5076178;28;20444;-58
2024/02/26 04:58:49;;;;;;;2.30;1.10;;;8.70;99.90;;;;;;5076051;28;20814;-57
2024/02/26 05:01:18;;;;;;;1.20;1.10;;;8.60;99.90;;;;;;5076110;28;20495;-58
2024/02/26 05:03:45;;;;;;;2.53;1.07;;;8.70;99.90;;;;;;5075622;28;20486;-58
2024/02/26 05:06:12;;;;;;;1.87;1.70;;;8.60;99.90;;;;;;5075711;28;20947;-58
2024/02/26 05:08:39;;;;;;;1.30;1.03;;;8.60;99.90;;;;;;5075794;28;20833;-58
2024/02/26 05:11:06;;;;;;;1.17;0.93;;;8.60;99.90;;;;;;5075804;28;20460;-58
2024/02/26 05:13:34;;;;;;;2.83;1.30;;;8.60;99.90;;;;;;5075839;28;20440;-58
2024/02/26 05:16:01;;;;;;;2.10;1.10;;;8.50;99.90;;;;;;5075587;28;20935;-58
2024/02/26 05:18:28;;;;;;;2.57;1.40;;;8.50;99.90;;;;;;5075839;28;20440;-58
2024/02/26 05:20:55;;;;;;;2.67;1.17;;;8.50;99.90;;;;;;5075596;28;20440;-57
2024/02/26 05:23:22;;;;;;;4.57;1.40;;;8.40;99.90;;;;;;5075561;28;20487;-58
2024/02/26 05:25:50;;;;;;;1.53;1.13;;;8.50;99.90;;;;;;5075501;28;20483;-58
2024/02/26 05:28:16;;;;;;;1.83;1.40;;;8.40;99.90;;;;;;5075555;28;20451;-58
2024/02/26 05:30:45;;;;;;;1.57;1.03;;;8.50;99.90;;;;;;5075355;28;20444;-58
2024/02/26 05:33:11;;;;;;;2.10;1.43;;;8.50;99.90;;;;;;5075433;28;20443;-58
2024/02/26 05:35:38;;;;;;;1.70;1.33;;;8.50;99.90;;;;;;5075360;28;20531;-57
2024/02/26 05:38:05;;;;;;;2.60;1.50;;;8.50;99.90;;;;;;5075373;28;20467;-57
2024/02/26 05:40:32;;;;;;;1.87;1.50;;;8.50;99.90;;;;;;5076030;28;20791;-58
2024/02/26 05:42:59;;;;;;;1.23;1.13;;;8.50;99.90;;;;;;5075148;28;20492;-58
2024/02/26 05:45:25;;;;;;;1.63;1.20;;;8.60;99.90;;;;;;5075226;28;20448;-58
2024/02/26 05:47:54;;;;;;;1.87;1.43;;;8.50;99.90;;;;;;5075152;28;20447;-57
2024/02/26 05:50:20;;;;;;;1.83;1.70;;;8.50;99.90;;;;;;5075204;28;20502;-58
2024/02/26 05:52:47;;;;;;;2.70;1.53;;;8.50;99.90;;;;;;5075093;28;20459;-58
2024/02/26 05:55:14;;;;;;;1.43;1.27;;;8.50;99.90;;;;;;5073728;28;20452;-58
2024/02/26 05:57:41;;;;;;;1.67;1.57;;;8.50;99.90;;;;;;5074930;28;20498;-58
2024/02/26 06:00:09;;;;;;;1.80;1.47;;;8.50;99.90;;;;;;5074895;28;20459;-58
2024/02/26 06:02:36;;;;;;;2.50;1.60;;;8.50;99.90;;;;;;5074553;28;20484;-58
2024/02/26 06:05:04;;;;;;;1.90;1.57;;;8.50;99.90;;;;;;5074498;28;20817;-58
2024/02/26 06:07:31;;;;;;;2.53;1.83;;;8.50;99.90;;;;;;5074417;28;20815;-58
2024/02/26 06:09:58;;;;;;;1.40;1.30;;;8.40;99.90;;;;;;5074740;28;20449;-58
2024/02/26 06:12:26;;;;;;;1.93;1.77;;;8.40;99.90;;;;;;5074858;28;20850;-58
2024/02/26 06:14:53;;;;;;;2.03;1.40;;;8.40;99.90;;;;;;5074724;28;20445;-58
2024/02/26 06:17:20;;;;;;;1.70;1.60;;;8.40;99.90;;;;;;5074344;28;20445;-58
2024/02/26 06:19:47;;;;;;;6.20;1.40;;;8.40;99.90;;;;;;5074456;28;20813;-55
2024/02/26 06:22:15;;;;;;;2.03;1.90;;;8.40;99.90;;;;;;5074712;28;20491;-57
2024/02/26 06:24:41;;;;;;;2.10;1.90;;;8.40;99.90;;;;;;5074197;28;20942;-58
2024/02/26 06:27:08;;;;;;;2.57;1.57;;;8.30;99.90;;;;;;5074219;28;20448;-57
2024/02/26 06:29:35;;;;;;;1.77;1.50;;;8.40;99.90;;;;;;5074275;28;20532;-57
2024/02/26 06:32:02;;;;;;;2.20;1.60;;;8.40;99.90;;;;;;5074154;28;20556;-58
2024/02/26 06:34:29;;;;;;;1.83;1.73;;;8.30;99.90;;;;;;5074577;28;20452;-58
2024/02/26 06:36:56;;;;;;;1.60;1.50;;;8.40;99.90;;;;;;5074071;28;20935;-58
2024/02/26 06:39:24;;;;;;;2.17;1.90;;;8.30;99.90;;;;;;5074168;28;20448;-56
2024/02/26 06:41:54;;;;;;;1.50;1.40;;;8.40;99.90;;;;;;5074055;28;20461;-56
2024/02/26 06:44:20;;;;;;;2.97;1.70;;;8.40;99.90;;;;;;5073987;28;20530;-56
2024/02/26 06:46:47;;;;;;;1.37;1.27;;;8.40;99.90;;;;;;5074038;28;20445;-56
2024/02/26 06:49:14;;;;;;;2.93;1.73;;;8.40;99.90;;;;;;5074068;28;20443;-56
2024/02/26 06:51:41;;;;;;;2.70;2.50;;;8.50;99.90;;;;;;5073849;28;20456;-56
2024/02/26 06:54:09;;;;;;;4.33;2.40;;;8.40;99.90;;;;;;5073641;28;20539;-56
2024/02/26 06:56:37;;;;;;;3.53;2.30;;;8.40;99.90;;;;;;5073845;28;20455;-55
2024/02/26 06:59:04;;;;;;;3.23;2.20;;;8.40;99.90;;;;;;5073590;28;20935;-55
2024/02/26 07:01:31;;;;;;;2.90;2.23;;;8.40;99.90;;;;;;5073992;28;20460;-55
2024/02/26 07:03:58;;;;;;;2.50;2.37;;;8.40;99.90;;;;;;5074114;28;20488;-56
2024/02/26 07:06:24;;;;;;;3.20;2.20;;;8.40;99.90;;;;;;5074313;28;20440;-56
2024/02/26 07:08:51;;;;;;;5.10;2.57;;;8.40;99.90;;;;;;5074608;28;20440;-56
2024/02/26 07:11:19;;;;;;;2.73;2.30;;;8.50;99.90;;;;;;5074342;28;20461;-55
2024/02/26 07:13:49;;;;;;;2.77;2.27;;;8.40;99.90;;;;;;5073534;28;20445;-55
2024/02/26 07:16:16;;;;;;;5.90;2.60;;;8.50;99.90;;;;;;5074065;28;20520;-55
2024/02/26 07:18:43;;;;;;;4.53;3.60;;;8.50;99.90;;;;;;5073944;28;20449;-55
2024/02/26 07:21:10;;;;;;;2.50;2.30;;;8.50;99.90;;;;;;5073559;28;20496;-56
2024/02/26 07:23:36;;;;;;;4.20;3.03;;;8.40;99.90;;;;;;5073519;28;20480;-56
2024/02/26 07:26:04;;;;;;;4.53;2.97;;;8.40;99.90;;;;;;5073889;28;20444;-56
2024/02/26 07:28:30;;;;;;;4.73;2.70;;;8.40;99.90;;;;;;5073520;28;20528;-56
2024/02/26 07:30:59;;;;;;;5.17;3.47;;;8.50;99.90;;;;;;5073811;28;20444;-55
2024/02/26 07:33:25;;;;;;;2.53;2.33;;;8.50;99.90;;;;;;5073684;28;20445;-56
2024/02/26 07:35:53;;;;;;;3.07;2.77;;;8.50;99.90;;;;;;5073491;28;20819;-56
2024/02/26 07:38:20;;;;;;;3.10;2.03;;;8.50;99.90;;;;;;5073601;28;20452;-56
2024/02/26 07:40:47;;;;;;;3.27;2.23;;;8.50;99.90;;;;;;5073709;28;20436;-56
2024/02/26 07:43:14;;;;;;;3.47;2.30;;;8.50;99.90;;;;;;5074007;28;20480;-56
2024/02/26 07:45:41;;;;;;;2.33;2.13;;;8.50;99.90;;;;;;5074088;28;20627;-56
2024/02/26 07:48:09;;;;;;;3.40;2.33;;;8.50;99.90;;;;;;5073763;28;20447;-56
2024/02/26 07:50:36;;;;;;;2.50;2.30;;;8.40;99.90;;;;;;5073331;28;20440;-57
2024/02/26 07:53:03;;;;;;;2.67;2.37;;;8.40;99.90;;;;;;5072946;28;20461;-57
2024/02/26 07:55:30;;;;;;;2.40;2.20;;;8.50;99.90;;;;;;5073466;28;20447;-56
2024/02/26 07:57:56;;;;;;;2.63;2.13;;;8.50;99.90;;;;;;5072933;28;20448;-56
2024/02/26 08:00:23;;;;;;;2.87;2.67;;;8.50;99.90;;;;;;5073333;28;20437;-56
2024/02/26 08:02:50;;;;;;;5.40;2.50;;;8.50;99.90;;;;;;5073015;28;20468;-56
2024/02/26 08:05:19;;;;;;;4.67;2.97;;;8.50;99.90;;;;;;5073200;28;20448;-56
2024/02/26 08:07:45;;;;;;;2.30;2.10;;;8.50;99.90;;;;;;5073094;28;20440;-56
2024/02/26 08:10:12;;;;;;;2.70;2.50;;;8.50;99.90;;;;;;5072989;28;20436;-56
2024/02/26 08:12:39;;;;;;;2.57;2.37;;;8.60;99.90;;;;;;5072951;28;20468;-56
2024/02/26 08:15:06;;;;;;;4.07;2.90;;;8.60;99.90;;;;;;5073042;28;20440;-56
2024/02/26 08:17:33;;;;;;;2.80;2.20;;;8.60;99.90;;;;;;5074179;28;20448;-56
2024/02/26 08:20:00;;;;;;;4.07;2.67;;;8.60;99.90;;;;;;5076987;28;20441;-56
2024/02/26 08:22:28;;;;;;;3.00;2.70;;;8.60;99.90;;;;;;5076747;28;20464;-56
2024/02/26 08:24:55;;;;;;;2.43;2.23;;;8.60;99.90;;;;;;5076689;28;20494;-56
2024/02/26 08:27:22;;;;;;;2.33;2.00;;;8.70;99.90;;;;;;5076765;28;20449;-56
2024/02/26 08:29:49;;;;;;;2.90;2.40;;;8.60;99.90;;;;;;5076709;28;20444;-56
2024/02/26 08:32:16;;;;;;;2.80;2.33;;;8.60;99.90;;;;;;5076455;28;20463;-56
2024/02/26 08:34:43;;;;;;;3.17;2.27;;;8.60;99.90;;;;;;5076371;28;20494;-56
2024/02/26 08:37:10;;;;;;;4.97;2.70;;;8.60;99.90;;;;;;5076502;28;20437;-56
2024/02/26 08:39:39;;;;;;;4.70;2.87;;;8.70;99.90;;;;;;5076480;28;20440;-56
2024/02/26 08:42:06;;;;;;;4.50;2.47;;;8.70;99.90;;;;;;5076384;28;20475;-56
2024/02/26 08:44:33;;;;;;;2.40;2.17;;;8.70;99.90;;;;;;5075963;28;20473;-56
2024/02/26 08:47:00;;;;;;;2.93;2.60;;;8.70;99.90;;;;;;5076580;28;20499;-56
2024/02/26 08:49:26;;;;;;;2.97;2.27;;;8.70;99.90;;;;;;5075984;28;20444;-56
2024/02/26 08:51:53;;;;;;;3.57;2.70;;;8.80;99.90;;;;;;5075834;28;20468;-56
2024/02/26 08:54:20;;;;;;;4.50;2.10;;;8.70;99.90;;;;;;5075807;28;20826;-56
2024/02/26 08:56:48;;;;;;;3.07;2.77;;;8.70;99.90;;;;;;5076177;28;20454;-56
2024/02/26 08:59:16;;;;;;;2.90;2.40;;;8.70;99.90;;;;;;5075887;28;20956;-56
2024/02/26 09:01:42;;;;;;;2.17;1.93;;;8.70;99.90;;;;;;5076040;28;20470;-56
2024/02/26 09:04:08;;;;;;;2.40;1.80;;;8.70;99.90;;;;;;5076086;28;20476;-56
2024/02/26 09:06:35;;;;;;;2.93;2.27;;;8.70;99.90;;;;;;5075734;28;20300;-56
2024/02/26 09:09:03;;;;;;;3.53;1.90;;;8.70;99.90;;;;;;5075640;28;20452;-56
2024/02/26 09:11:30;;;;;;;3.00;1.70;;;8.70;99.90;;;;;;5075884;28;20465;-56
2024/02/26 09:13:58;;;;;;;1.90;1.67;;;8.70;99.90;;;;;;5075444;28;20969;-56
2024/02/26 09:16:25;;;;;;;2.10;1.63;;;8.70;99.90;;;;;;5075790;28;20460;-56
2024/02/26 09:18:52;;;;;;;3.07;2.07;;;8.70;99.90;;;;;;5075520;28;20448;-56
2024/02/26 09:21:22;;;;;;;3.10;2.53;;;8.70;99.90;;;;;;5075393;28;20464;-56
2024/02/26 09:23:50;;;;;;;2.27;1.70;;;8.70;99.90;;;;;;5075680;28;20497;-56
2024/02/26 09:26:17;;;;;;;2.27;1.70;;;8.70;99.90;;;;;;5075583;28;20527;-56
2024/02/26 09:28:44;;;;;;;2.40;2.20;;;8.70;99.90;;;;;;5075228;28;20445;-56
2024/02/26 09:31:12;;;;;;;2.80;1.90;;;8.80;99.90;;;;;;5075143;28;20851;-56
2024/02/26 09:33:39;;;;;;;2.10;1.90;;;8.80;99.90;;;;;;5075566;28;20445;-56
2024/02/26 09:36:06;;;;;;;3.40;1.90;;;8.80;99.90;;;;;;5075746;28;20443;-56
2024/02/26 09:38:36;;;;;;;3.27;2.00;;;8.70;99.90;;;;;;5075046;28;20940;-56
2024/02/26 09:41:03;;;;;;;2.10;1.70;;;8.80;99.90;;;;;;5075315;28;20521;-56
2024/02/26 09:43:35;;;;;;;2.20;2.00;;;8.70;99.90;;;;;;5075228;28;20441;-56
2024/02/26 09:46:02;;;;;;;5.97;2.10;;;8.80;99.90;;;;;;5075273;28;20433;-56
2024/02/26 09:48:32;;;;;;;2.50;1.90;;;8.90;99.90;;;;;;5074945;28;20447;-56
2024/02/26 09:50:59;;;;;;;4.73;1.63;;;9.00;99.90;;;;;;5074988;28;20444;-56
2024/02/26 09:53:26;;;;;;;3.63;2.23;;;9.00;99.90;;;;;;5074895;28;20462;-56
2024/02/26 09:55:53;;;;;;;2.57;2.17;;;9.00;99.90;;;;;;5075177;28;20512;-56
2024/02/26 09:58:21;;;;;;;2.10;1.90;;;9.10;99.90;;;;;;5075187;28;20449;-56
2024/02/26 10:00:56;;;;;;;2.53;1.73;;;9.10;99.90;;;;;;5074716;28;20952;-56
2024/02/26 10:03:24;;;;;;;3.17;2.10;;;9.20;99.90;;;;;;5075099;28;20433;-56
2024/02/26 10:05:55;;;;;;;2.10;2.00;;;9.20;99.90;;;;;;5074987;28;20540;-56
2024/02/26 10:08:23;;;;;;;3.10;1.70;;;9.20;99.90;;;;;;5074978;28;20421;-55
2024/02/26 10:10:50;;;;;;;2.43;1.87;;;9.20;99.90;;;;;;5074717;28;20448;-56
2024/02/26 10:13:17;;;;;;;1.90;1.80;;;9.30;99.90;;;;;;5074361;28;20944;-56
2024/02/26 10:15:44;;;;;;;4.67;1.87;;;9.40;99.90;;;;;;5074894;28;20831;-56
2024/02/26 10:18:11;;;;;;;3.00;2.50;;;9.40;99.90;;;;;;5074398;28;20950;-56
2024/02/26 10:20:38;;;;;;;2.93;2.33;;;9.50;99.90;;;;;;5074510;28;20931;-56
2024/02/26 10:23:06;;;;;;;6.13;2.07;;;9.50;99.90;;;;;;5074444;28;20487;-56
2024/02/26 10:25:33;;;;;;;2.40;2.10;;;9.70;99.90;;;;;;5075584;28;20822;-56
2024/02/26 10:28:03;;;;;;;4.77;2.33;;;9.70;99.90;;;;;;5075418;28;20451;-56
2024/02/26 10:30:30;;;;;;;3.50;3.20;;;9.80;99.90;;;;;;5075048;28;20448;-56
2024/02/26 10:32:57;;;;;;;3.93;2.30;;;9.80;99.90;;;;;;5074562;28;20460;-56
2024/02/26 10:35:25;;;;;;;2.47;2.27;;;9.90;99.90;;;;;;5074059;28;20823;-56
2024/02/26 10:37:53;;;;;;;3.47;2.00;;;9.90;99.90;;;;;;5074389;28;21004;-56
2024/02/26 10:40:21;;;;;;;3.43;1.90;;;10.00;99.90;;;;;;5073729;28;20444;-56
2024/02/26 10:42:48;;;;;;;2.33;2.07;;;10.00;99.90;;;;;;5074159;28;20465;-56
2024/02/26 10:45:15;;;;;;;2.63;2.20;;;10.00;99.90;;;;;;5074123;28;20484;-56
2024/02/26 10:47:42;;;;;;;2.00;1.80;;;10.00;99.90;;;;;;5073779;28;20451;-56
2024/02/26 10:50:10;;;;;;;2.70;2.03;;;10.00;99.90;;;;;;5074082;28;20451;-56
2024/02/26 10:52:37;;;;;;;3.80;2.30;;;10.10;99.90;;;;;;5073855;28;20464;-56
2024/02/26 10:55:07;;;;;;;3.17;2.10;;;10.20;99.90;;;;;;5073705;28;20531;-56
2024/02/26 10:57:39;;;;;;;2.30;2.10;;;10.40;99.90;;;;;;5073560;28;20441;-56
2024/02/26 11:00:10;;;;;;;2.10;1.90;;;10.60;99.90;;;;;;5073891;28;20433;-56
2024/02/26 11:02:37;;;;;;;2.53;1.90;;;10.70;99.90;;;;;;5073702;28;20495;-56
2024/02/26 11:05:04;;;;;;;4.57;2.10;;;10.90;99.90;;;;;;5073749;28;20574;-56
2024/02/26 11:07:32;;;;;;;3.67;2.17;;;11.00;99.90;;;;;;5073561;28;20543;-56
2024/02/26 11:10:00;;;;;;;1.80;1.63;;;11.20;99.90;;;;;;5073441;28;20946;-56
2024/02/26 11:12:30;;;;;;;2.33;2.10;;;11.30;99.90;;;;;;5073506;28;20457;-56
2024/02/26 11:15:00;;;;;;;2.20;2.00;;;11.50;99.90;;;;;;5073534;28;20437;-56
2024/02/26 11:17:31;;;;;;;5.43;2.27;;;11.50;99.90;;;;;;5074373;28;20433;-56
2024/02/26 11:19:58;;;;;;;4.03;2.20;;;11.40;99.90;;;;;;5073583;28;20454;-56
2024/02/26 11:22:26;;;;;;;2.60;1.80;;;11.50;99.90;;;;;;5073431;28;20464;-56
2024/02/26 11:24:54;;;;;;;2.40;2.03;;;11.50;99.90;;;;;;5073380;28;20476;-56
2024/02/26 11:27:25;;;;;;;3.13;2.80;;;11.60;99.90;;;;;;5073153;28;20974;-56
2024/02/26 11:29:53;;;;;;;2.40;2.20;;;11.60;99.90;;;;;;5073134;28;20425;-56
2024/02/26 11:32:22;;;;;;;2.90;2.17;;;11.70;99.90;;;;;;5073225;28;20504;-56
2024/02/26 11:34:49;;;;;;;3.60;2.70;;;11.60;99.90;;;;;;5073318;28;20437;-57
2024/02/26 11:37:18;;;;;;;5.00;2.53;;;11.60;99.90;;;;;;5073024;28;20850;-56
2024/02/26 11:39:46;;;;;;;3.50;2.77;;;11.60;99.90;;;;;;5073005;28;20510;-56
2024/02/26 11:42:16;;;;;;;3.20;2.40;;;11.50;99.90;;;;;;5073003;28;20464;-57
2024/02/26 11:44:43;;;;;;;2.70;2.43;;;11.60;99.90;;;;;;5073365;28;20468;-57
2024/02/26 11:47:14;;;;;;;5.83;3.10;;;11.50;99.90;;;;;;5073268;28;20444;-57
2024/02/26 11:49:42;;;;;;;6.30;3.40;;;11.50;99.90;;;;;;5074097;28;20467;-57
2024/02/26 11:52:10;;;;;;;5.10;2.90;;;11.40;99.90;;;;;;5073687;28;20457;-57
2024/02/26 11:54:47;;;;;;;3.33;3.03;;;11.40;99.90;;;;;;5076883;28;20949;-56
2024/02/26 11:57:28;;;;;;;4.67;3.23;;;11.30;99.90;;;;;;5077352;28;20466;-56
2024/02/26 11:59:56;;;;;;;8.13;2.90;;;11.20;99.90;;;;;;5077340;28;20425;-56
2024/02/26 12:02:42;;;;;;;3.33;3.13;;;11.10;99.90;;;;;;5077151;28;20467;-56
2024/02/26 12:05:13;;;;;;;3.50;3.20;;;11.00;99.90;;;;;;5077118;28;20488;-56
2024/02/26 12:07:42;;;;;;;3.63;3.33;;;10.90;99.90;;;;;;5077180;28;20433;-56
2024/02/26 12:10:22;;;;;;;3.53;3.23;;;10.90;99.90;;;;;;5077075;28;20447;-57
2024/02/26 12:12:48;;;;;;;3.43;3.03;;;10.80;99.90;;;;;;5076813;28;20522;-56
2024/02/26 12:15:19;;;;;;;3.87;3.50;;;10.70;99.90;;;;;;5076985;28;20445;-57
2024/02/26 12:17:50;;;;;;;3.67;3.10;;;10.70;99.90;;;;;;5077019;28;20508;-56
2024/02/26 12:20:19;;;;;;;3.87;3.47;;;10.60;99.90;;;;;;5076934;28;20536;-57
2024/02/26 12:22:48;;;;;;;5.00;3.50;;;10.60;99.90;;;;;;5076431;28;20974;-57
2024/02/26 12:25:15;;;;;;;3.83;3.43;;;10.70;99.90;;;;;;5076367;28;20472;-56
2024/02/26 12:27:41;;;;;;;5.70;3.43;;;10.60;99.90;;;;;;5076761;28;20448;-56
2024/02/26 12:30:10;;;;;;;7.77;3.97;;;10.60;99.90;;;;;;5076646;28;20441;-56
2024/02/26 12:32:37;;;;;;;4.57;4.10;;;10.70;99.90;;;;;;5077232;28;20470;-57
2024/02/26 12:35:04;;;;;;;3.80;3.47;;;10.70;99.90;;;;;;5076201;28;20949;-57
2024/02/26 12:37:33;;;;;;;4.33;3.57;;;10.70;99.90;;;;;;5076521;28;20484;-57
2024/02/26 12:40:00;;;;;;;4.40;4.00;;;10.80;99.90;;;;;;5076112;28;20980;-57
2024/02/26 12:42:27;;;;;;;6.17;4.13;;;10.80;99.90;;;;;;5076314;28;20452;-57
2024/02/26 12:44:54;;;;;;;3.70;3.37;;;10.90;99.90;;;;;;5076110;28;20476;-56
2024/02/26 12:47:21;;;;;;;4.13;3.73;;;10.90;99.90;;;;;;5076346;28;20450;-57
2024/02/26 12:49:48;;;;;;;4.70;4.27;;;10.90;99.90;;;;;;5076271;28;20445;-57
2024/02/26 12:52:15;;;;;;;4.53;4.10;;;10.90;99.90;;;;;;5076135;28;20464;-57
2024/02/26 12:54:45;;;;;;;5.90;5.03;;;10.90;99.90;;;;;;5075816;28;20462;-57
2024/02/26 12:57:12;;;;;;;4.57;4.10;;;10.90;99.90;;;;;;5076254;28;20441;-57